createdAt,value
2024-01-31T00:00:08.918Z,1030.91
2024-01-31T00:30:08.927Z,1030.81
2024-01-31T01:00:08.933Z,1030.78
2024-01-31T01:30:08.938Z,1030.83
2024-01-31T02:00:08.963Z,1030.87
2024-01-31T02:30:08.933Z,1030.68
2024-01-31T03:00:08.953Z,1030.61
2024-01-31T03:30:10.423Z,1030.49
2024-01-31T04:00:08.965Z,1030.37
2024-01-31T04:30:08.978Z,1030.47
2024-01-31T05:00:08.985Z,1030.67
2024-01-31T05:30:08.999Z,1030.95
2024-01-31T06:00:10.691Z,1031.34
2024-01-31T06:30:09.017Z,1031.41
2024-01-31T07:00:09.003Z,1031.52
2024-01-31T07:30:09.018Z,1031.46
2024-01-31T08:00:09.019Z,1031.61
2024-01-31T08:30:09.024Z,1031.75
2024-01-31T09:00:09.023Z,1031.8
2024-01-31T09:30:09.032Z,1031.72
2024-01-31T10:00:09.038Z,1031.96
2024-01-31T10:30:09.026Z,1031.82
2024-01-31T11:00:09.092Z,1031.86
2024-01-31T12:30:09.151Z,1031
2024-01-31T13:00:09.181Z,1030.97
2024-01-31T13:30:12.729Z,1030.7
2024-01-31T14:00:11.648Z,1030.14
2024-01-31T14:30:09.191Z,1029.56
2024-01-31T15:00:09.308Z,1029.56
2024-01-31T15:30:09.187Z,1029.66
2024-01-31T16:00:09.188Z,1029.6
2024-01-31T16:30:09.140Z,1029.53
2024-01-31T17:00:09.171Z,1029.47
2024-01-31T17:30:09.207Z,1029.32
2024-01-31T18:00:09.290Z,1029.06
2024-01-31T18:30:09.224Z,1028.63
2024-01-31T19:00:09.208Z,1028.42
2024-01-31T19:30:10.696Z,1027.98
2024-01-31T20:00:09.147Z,1027.95
2024-01-31T20:30:09.253Z,1027.8
2024-01-31T21:00:09.182Z,1027.62
2024-01-31T21:30:09.256Z,1026.94
2024-01-31T22:00:09.291Z,1026.63
2024-01-31T22:30:09.208Z,1026.38
2024-01-31T23:00:09.355Z,1026
2024-01-31T23:30:09.242Z,1025.85
